<?xml version="1.0" encoding="UTF-8" standalone="no" ?>
<gpx xmlns="http://www.topografix.com/GPX/1/1" xmlns:xsi="http://www.w3.org/2001/XMLSchema-instance" xsi:schemaLocation="http://www.topografix.com/GPX/1/1 http://www.topografix.com/GPX/1/1/gpx.xsd" version="1.1" creator="VisuGPX - https://www.visugpx.com">
  <metadata>
    <name>Randonnée autour de Riec</name>
    <desc><![CDATA[Avons fait connaissance des endroits méconnus de Riec]]></desc>
  </metadata>
  <trk>
    <name><![CDATA[03-DEC-13 16:12:53]]></name>
    <trkseg>
      <trkpt lat="47.84212" lon="-3.69079">
        <ele>55.89</ele>
        <time>2013-12-03T12:42:28Z</time>
      </trkpt>
      <trkpt lat="47.84212" lon="-3.69101">
        <ele>46.76</ele>
        <time>2013-12-03T12:42:58Z</time>
      </trkpt>
      <trkpt lat="47.84217" lon="-3.69104">
        <ele>46.76</ele>
        <time>2013-12-03T12:43:28Z</time>
      </trkpt>
      <trkpt lat="47.84218" lon="-3.69104">
        <ele>46.76</ele>
        <time>2013-12-03T12:43:58Z</time>
      </trkpt>
      <trkpt lat="47.84219" lon="-3.69101">
        <ele>49.16</ele>
        <time>2013-12-03T12:44:28Z</time>
      </trkpt>
      <trkpt lat="47.84221" lon="-3.69098">
        <ele>50.13</ele>
        <time>2013-12-03T12:44:58Z</time>
      </trkpt>
      <trkpt lat="47.84221" lon="-3.69099">
        <ele>51.57</ele>
        <time>2013-12-03T12:45:28Z</time>
      </trkpt>
      <trkpt lat="47.84219" lon="-3.69101">
        <ele>54.93</ele>
        <time>2013-12-03T12:45:58Z</time>
      </trkpt>
      <trkpt lat="47.84219" lon="-3.69102">
        <ele>53.97</ele>
        <time>2013-12-03T12:46:28Z</time>
      </trkpt>
      <trkpt lat="47.84218" lon="-3.69103">
        <ele>53.01</ele>
        <time>2013-12-03T12:46:58Z</time>
      </trkpt>
      <trkpt lat="47.84235" lon="-3.69088">
        <ele>52.53</ele>
        <time>2013-12-03T12:47:28Z</time>
      </trkpt>
      <trkpt lat="47.8425" lon="-3.69054">
        <ele>52.05</ele>
        <time>2013-12-03T12:47:58Z</time>
      </trkpt>
      <trkpt lat="47.84263" lon="-3.69016">
        <ele>49.16</ele>
        <time>2013-12-03T12:48:28Z</time>
      </trkpt>
      <trkpt lat="47.84258" lon="-3.68963">
        <ele>53.49</ele>
        <time>2013-12-03T12:48:58Z</time>
      </trkpt>
      <trkpt lat="47.84294" lon="-3.68938">
        <ele>53.97</ele>
        <time>2013-12-03T12:49:28Z</time>
      </trkpt>
      <trkpt lat="47.84292" lon="-3.68886">
        <ele>56.37</ele>
        <time>2013-12-03T12:49:58Z</time>
      </trkpt>
      <trkpt lat="47.84289" lon="-3.68826">
        <ele>55.41</ele>
        <time>2013-12-03T12:50:28Z</time>
      </trkpt>
      <trkpt lat="47.84289" lon="-3.68767">
        <ele>54.45</ele>
        <time>2013-12-03T12:50:58Z</time>
      </trkpt>
      <trkpt lat="47.84293" lon="-3.68715">
        <ele>53.97</ele>
        <time>2013-12-03T12:51:28Z</time>
      </trkpt>
      <trkpt lat="47.84305" lon="-3.6866">
        <ele>54.45</ele>
        <time>2013-12-03T12:51:58Z</time>
      </trkpt>
      <trkpt lat="47.84323" lon="-3.6861">
        <ele>53.97</ele>
        <time>2013-12-03T12:52:28Z</time>
      </trkpt>
      <trkpt lat="47.8434" lon="-3.68558">
        <ele>54.45</ele>
        <time>2013-12-03T12:52:58Z</time>
      </trkpt>
      <trkpt lat="47.84373" lon="-3.68539">
        <ele>53.49</ele>
        <time>2013-12-03T12:53:28Z</time>
      </trkpt>
      <trkpt lat="47.84403" lon="-3.68568">
        <ele>51.09</ele>
        <time>2013-12-03T12:53:58Z</time>
      </trkpt>
      <trkpt lat="47.84433" lon="-3.68606">
        <ele>50.13</ele>
        <time>2013-12-03T12:54:28Z</time>
      </trkpt>
      <trkpt lat="47.84462" lon="-3.68645">
        <ele>51.57</ele>
        <time>2013-12-03T12:54:58Z</time>
      </trkpt>
      <trkpt lat="47.84493" lon="-3.68676">
        <ele>51.57</ele>
        <time>2013-12-03T12:55:28Z</time>
      </trkpt>
      <trkpt lat="47.84528" lon="-3.68697">
        <ele>53.01</ele>
        <time>2013-12-03T12:55:58Z</time>
      </trkpt>
      <trkpt lat="47.84559" lon="-3.68713">
        <ele>52.53</ele>
        <time>2013-12-03T12:56:28Z</time>
      </trkpt>
      <trkpt lat="47.84588" lon="-3.68705">
        <ele>52.05</ele>
        <time>2013-12-03T12:56:58Z</time>
      </trkpt>
      <trkpt lat="47.84615" lon="-3.68663">
        <ele>47.24</ele>
        <time>2013-12-03T12:57:28Z</time>
      </trkpt>
      <trkpt lat="47.84643" lon="-3.68622">
        <ele>51.57</ele>
        <time>2013-12-03T12:57:58Z</time>
      </trkpt>
      <trkpt lat="47.84667" lon="-3.68584">
        <ele>43.4</ele>
        <time>2013-12-03T12:58:28Z</time>
      </trkpt>
      <trkpt lat="47.84695" lon="-3.68544">
        <ele>46.28</ele>
        <time>2013-12-03T12:58:58Z</time>
      </trkpt>
      <trkpt lat="47.84722" lon="-3.68525">
        <ele>50.13</ele>
        <time>2013-12-03T12:59:28Z</time>
      </trkpt>
      <trkpt lat="47.84745" lon="-3.68486">
        <ele>52.05</ele>
        <time>2013-12-03T12:59:58Z</time>
      </trkpt>
      <trkpt lat="47.8477" lon="-3.68443">
        <ele>50.13</ele>
        <time>2013-12-03T13:00:28Z</time>
      </trkpt>
      <trkpt lat="47.84797" lon="-3.68401">
        <ele>47.24</ele>
        <time>2013-12-03T13:00:58Z</time>
      </trkpt>
      <trkpt lat="47.84818" lon="-3.68357">
        <ele>45.8</ele>
        <time>2013-12-03T13:01:28Z</time>
      </trkpt>
      <trkpt lat="47.84841" lon="-3.68313">
        <ele>48.2</ele>
        <time>2013-12-03T13:01:58Z</time>
      </trkpt>
      <trkpt lat="47.84864" lon="-3.68266">
        <ele>49.16</ele>
        <time>2013-12-03T13:02:28Z</time>
      </trkpt>
      <trkpt lat="47.84885" lon="-3.68224">
        <ele>52.05</ele>
        <time>2013-12-03T13:02:58Z</time>
      </trkpt>
      <trkpt lat="47.84907" lon="-3.68179">
        <ele>50.13</ele>
        <time>2013-12-03T13:03:28Z</time>
      </trkpt>
      <trkpt lat="47.8494" lon="-3.68141">
        <ele>50.61</ele>
        <time>2013-12-03T13:03:58Z</time>
      </trkpt>
      <trkpt lat="47.84968" lon="-3.68101">
        <ele>50.61</ele>
        <time>2013-12-03T13:04:28Z</time>
      </trkpt>
      <trkpt lat="47.84996" lon="-3.68064">
        <ele>52.05</ele>
        <time>2013-12-03T13:04:58Z</time>
      </trkpt>
      <trkpt lat="47.85029" lon="-3.68029">
        <ele>53.97</ele>
        <time>2013-12-03T13:05:28Z</time>
      </trkpt>
      <trkpt lat="47.85066" lon="-3.68002">
        <ele>55.41</ele>
        <time>2013-12-03T13:05:58Z</time>
      </trkpt>
      <trkpt lat="47.85102" lon="-3.67978">
        <ele>56.37</ele>
        <time>2013-12-03T13:06:28Z</time>
      </trkpt>
      <trkpt lat="47.85138" lon="-3.67957">
        <ele>57.82</ele>
        <time>2013-12-03T13:06:58Z</time>
      </trkpt>
      <trkpt lat="47.85173" lon="-3.67935">
        <ele>59.26</ele>
        <time>2013-12-03T13:07:28Z</time>
      </trkpt>
      <trkpt lat="47.8521" lon="-3.67919">
        <ele>60.7</ele>
        <time>2013-12-03T13:07:58Z</time>
      </trkpt>
      <trkpt lat="47.85248" lon="-3.67908">
        <ele>61.18</ele>
        <time>2013-12-03T13:08:28Z</time>
      </trkpt>
      <trkpt lat="47.85287" lon="-3.67907">
        <ele>60.22</ele>
        <time>2013-12-03T13:08:58Z</time>
      </trkpt>
      <trkpt lat="47.85326" lon="-3.67909">
        <ele>60.22</ele>
        <time>2013-12-03T13:09:28Z</time>
      </trkpt>
      <trkpt lat="47.8536" lon="-3.67909">
        <ele>58.3</ele>
        <time>2013-12-03T13:09:58Z</time>
      </trkpt>
      <trkpt lat="47.85402" lon="-3.67905">
        <ele>57.82</ele>
        <time>2013-12-03T13:10:28Z</time>
      </trkpt>
      <trkpt lat="47.85444" lon="-3.67907">
        <ele>57.82</ele>
        <time>2013-12-03T13:10:58Z</time>
      </trkpt>
      <trkpt lat="47.85481" lon="-3.67907">
        <ele>58.78</ele>
        <time>2013-12-03T13:11:28Z</time>
      </trkpt>
      <trkpt lat="47.85522" lon="-3.67907">
        <ele>59.26</ele>
        <time>2013-12-03T13:11:58Z</time>
      </trkpt>
      <trkpt lat="47.85559" lon="-3.67909">
        <ele>60.22</ele>
        <time>2013-12-03T13:12:28Z</time>
      </trkpt>
      <trkpt lat="47.85598" lon="-3.6791">
        <ele>59.74</ele>
        <time>2013-12-03T13:12:58Z</time>
      </trkpt>
      <trkpt lat="47.85636" lon="-3.67912">
        <ele>58.3</ele>
        <time>2013-12-03T13:13:28Z</time>
      </trkpt>
      <trkpt lat="47.85678" lon="-3.67911">
        <ele>58.78</ele>
        <time>2013-12-03T13:13:58Z</time>
      </trkpt>
      <trkpt lat="47.85717" lon="-3.67913">
        <ele>59.74</ele>
        <time>2013-12-03T13:14:28Z</time>
      </trkpt>
      <trkpt lat="47.85757" lon="-3.67903">
        <ele>57.34</ele>
        <time>2013-12-03T13:14:58Z</time>
      </trkpt>
      <trkpt lat="47.85794" lon="-3.67886">
        <ele>56.86</ele>
        <time>2013-12-03T13:15:28Z</time>
      </trkpt>
      <trkpt lat="47.85831" lon="-3.67867">
        <ele>59.26</ele>
        <time>2013-12-03T13:15:58Z</time>
      </trkpt>
      <trkpt lat="47.85834" lon="-3.6791">
        <ele>58.3</ele>
        <time>2013-12-03T13:16:28Z</time>
      </trkpt>
      <trkpt lat="47.85822" lon="-3.67967">
        <ele>56.37</ele>
        <time>2013-12-03T13:16:58Z</time>
      </trkpt>
      <trkpt lat="47.85811" lon="-3.68025">
        <ele>58.3</ele>
        <time>2013-12-03T13:17:28Z</time>
      </trkpt>
      <trkpt lat="47.858" lon="-3.68078">
        <ele>58.78</ele>
        <time>2013-12-03T13:17:58Z</time>
      </trkpt>
      <trkpt lat="47.8579" lon="-3.68135">
        <ele>58.78</ele>
        <time>2013-12-03T13:18:28Z</time>
      </trkpt>
      <trkpt lat="47.85782" lon="-3.68191">
        <ele>55.89</ele>
        <time>2013-12-03T13:18:58Z</time>
      </trkpt>
      <trkpt lat="47.85773" lon="-3.6825">
        <ele>55.41</ele>
        <time>2013-12-03T13:19:28Z</time>
      </trkpt>
      <trkpt lat="47.85776" lon="-3.68308">
        <ele>54.93</ele>
        <time>2013-12-03T13:19:58Z</time>
      </trkpt>
      <trkpt lat="47.8578" lon="-3.68365">
        <ele>48.2</ele>
        <time>2013-12-03T13:20:28Z</time>
      </trkpt>
      <trkpt lat="47.85779" lon="-3.68418">
        <ele>41.95</ele>
        <time>2013-12-03T13:20:58Z</time>
      </trkpt>
      <trkpt lat="47.85769" lon="-3.68474">
        <ele>40.99</ele>
        <time>2013-12-03T13:21:28Z</time>
      </trkpt>
      <trkpt lat="47.85757" lon="-3.6853">
        <ele>42.92</ele>
        <time>2013-12-03T13:21:58Z</time>
      </trkpt>
      <trkpt lat="47.85751" lon="-3.68584">
        <ele>42.44</ele>
        <time>2013-12-03T13:22:28Z</time>
      </trkpt>
      <trkpt lat="47.85746" lon="-3.68631">
        <ele>42.44</ele>
        <time>2013-12-03T13:22:58Z</time>
      </trkpt>
      <trkpt lat="47.85753" lon="-3.68678">
        <ele>37.15</ele>
        <time>2013-12-03T13:23:28Z</time>
      </trkpt>
      <trkpt lat="47.85754" lon="-3.68728">
        <ele>32.82</ele>
        <time>2013-12-03T13:23:58Z</time>
      </trkpt>
      <trkpt lat="47.85751" lon="-3.68774">
        <ele>34.74</ele>
        <time>2013-12-03T13:24:28Z</time>
      </trkpt>
      <trkpt lat="47.85747" lon="-3.68828">
        <ele>35.71</ele>
        <time>2013-12-03T13:24:58Z</time>
      </trkpt>
      <trkpt lat="47.85745" lon="-3.6889">
        <ele>36.19</ele>
        <time>2013-12-03T13:25:28Z</time>
      </trkpt>
      <trkpt lat="47.85739" lon="-3.68951">
        <ele>34.26</ele>
        <time>2013-12-03T13:25:58Z</time>
      </trkpt>
      <trkpt lat="47.85739" lon="-3.69007">
        <ele>33.78</ele>
        <time>2013-12-03T13:26:28Z</time>
      </trkpt>
      <trkpt lat="47.85746" lon="-3.69054">
        <ele>29.46</ele>
        <time>2013-12-03T13:26:58Z</time>
      </trkpt>
      <trkpt lat="47.8574" lon="-3.69113">
        <ele>25.13</ele>
        <time>2013-12-03T13:27:28Z</time>
      </trkpt>
      <trkpt lat="47.8574" lon="-3.69162">
        <ele>28.98</ele>
        <time>2013-12-03T13:27:58Z</time>
      </trkpt>
      <trkpt lat="47.85757" lon="-3.69189">
        <ele>30.42</ele>
        <time>2013-12-03T13:28:28Z</time>
      </trkpt>
      <trkpt lat="47.85761" lon="-3.69198">
        <ele>26.57</ele>
        <time>2013-12-03T13:28:58Z</time>
      </trkpt>
      <trkpt lat="47.85807" lon="-3.69202">
        <ele>19.84</ele>
        <time>2013-12-03T13:29:28Z</time>
      </trkpt>
      <trkpt lat="47.85807" lon="-3.69245">
        <ele>22.73</ele>
        <time>2013-12-03T13:29:58Z</time>
      </trkpt>
      <trkpt lat="47.858" lon="-3.69298">
        <ele>26.09</ele>
        <time>2013-12-03T13:30:28Z</time>
      </trkpt>
      <trkpt lat="47.85795" lon="-3.69345">
        <ele>25.13</ele>
        <time>2013-12-03T13:30:58Z</time>
      </trkpt>
      <trkpt lat="47.85791" lon="-3.69409">
        <ele>20.32</ele>
        <time>2013-12-03T13:31:28Z</time>
      </trkpt>
      <trkpt lat="47.85785" lon="-3.69464">
        <ele>20.81</ele>
        <time>2013-12-03T13:31:58Z</time>
      </trkpt>
      <trkpt lat="47.85767" lon="-3.69506">
        <ele>24.65</ele>
        <time>2013-12-03T13:32:28Z</time>
      </trkpt>
      <trkpt lat="47.85738" lon="-3.69544">
        <ele>25.13</ele>
        <time>2013-12-03T13:32:58Z</time>
      </trkpt>
      <trkpt lat="47.85733" lon="-3.69601">
        <ele>25.61</ele>
        <time>2013-12-03T13:33:28Z</time>
      </trkpt>
      <trkpt lat="47.85732" lon="-3.6966">
        <ele>26.57</ele>
        <time>2013-12-03T13:33:58Z</time>
      </trkpt>
      <trkpt lat="47.85732" lon="-3.69709">
        <ele>25.61</ele>
        <time>2013-12-03T13:34:28Z</time>
      </trkpt>
      <trkpt lat="47.85701" lon="-3.69732">
        <ele>24.65</ele>
        <time>2013-12-03T13:34:58Z</time>
      </trkpt>
      <trkpt lat="47.85663" lon="-3.69706">
        <ele>29.46</ele>
        <time>2013-12-03T13:35:28Z</time>
      </trkpt>
      <trkpt lat="47.85627" lon="-3.69687">
        <ele>31.38</ele>
        <time>2013-12-03T13:35:58Z</time>
      </trkpt>
      <trkpt lat="47.85591" lon="-3.69678">
        <ele>32.82</ele>
        <time>2013-12-03T13:36:28Z</time>
      </trkpt>
      <trkpt lat="47.85552" lon="-3.69675">
        <ele>35.23</ele>
        <time>2013-12-03T13:36:58Z</time>
      </trkpt>
      <trkpt lat="47.85512" lon="-3.69675">
        <ele>36.19</ele>
        <time>2013-12-03T13:37:28Z</time>
      </trkpt>
      <trkpt lat="47.85473" lon="-3.69673">
        <ele>36.19</ele>
        <time>2013-12-03T13:37:58Z</time>
      </trkpt>
      <trkpt lat="47.85434" lon="-3.69664">
        <ele>34.74</ele>
        <time>2013-12-03T13:38:28Z</time>
      </trkpt>
      <trkpt lat="47.85396" lon="-3.69647">
        <ele>33.78</ele>
        <time>2013-12-03T13:38:58Z</time>
      </trkpt>
      <trkpt lat="47.85358" lon="-3.69626">
        <ele>35.71</ele>
        <time>2013-12-03T13:39:28Z</time>
      </trkpt>
      <trkpt lat="47.8532" lon="-3.69608">
        <ele>40.03</ele>
        <time>2013-12-03T13:39:58Z</time>
      </trkpt>
      <trkpt lat="47.8531" lon="-3.69567">
        <ele>40.99</ele>
        <time>2013-12-03T13:40:28Z</time>
      </trkpt>
      <trkpt lat="47.85297" lon="-3.69515">
        <ele>37.63</ele>
        <time>2013-12-03T13:40:58Z</time>
      </trkpt>
      <trkpt lat="47.85288" lon="-3.69465">
        <ele>36.19</ele>
        <time>2013-12-03T13:41:28Z</time>
      </trkpt>
      <trkpt lat="47.85267" lon="-3.69419">
        <ele>39.07</ele>
        <time>2013-12-03T13:41:58Z</time>
      </trkpt>
      <trkpt lat="47.8524" lon="-3.69393">
        <ele>38.11</ele>
        <time>2013-12-03T13:42:28Z</time>
      </trkpt>
      <trkpt lat="47.85217" lon="-3.69355">
        <ele>38.59</ele>
        <time>2013-12-03T13:42:58Z</time>
      </trkpt>
      <trkpt lat="47.85204" lon="-3.69303">
        <ele>44.36</ele>
        <time>2013-12-03T13:43:28Z</time>
      </trkpt>
      <trkpt lat="47.85179" lon="-3.69282">
        <ele>46.76</ele>
        <time>2013-12-03T13:43:58Z</time>
      </trkpt>
      <trkpt lat="47.85154" lon="-3.69263">
        <ele>43.88</ele>
        <time>2013-12-03T13:44:28Z</time>
      </trkpt>
      <trkpt lat="47.85126" lon="-3.69228">
        <ele>49.65</ele>
        <time>2013-12-03T13:44:58Z</time>
      </trkpt>
      <trkpt lat="47.8509" lon="-3.6921">
        <ele>47.72</ele>
        <time>2013-12-03T13:45:28Z</time>
      </trkpt>
      <trkpt lat="47.85059" lon="-3.69186">
        <ele>40.51</ele>
        <time>2013-12-03T13:45:58Z</time>
      </trkpt>
      <trkpt lat="47.85027" lon="-3.69158">
        <ele>39.07</ele>
        <time>2013-12-03T13:46:28Z</time>
      </trkpt>
      <trkpt lat="47.84993" lon="-3.69138">
        <ele>35.23</ele>
        <time>2013-12-03T13:46:58Z</time>
      </trkpt>
      <trkpt lat="47.8496" lon="-3.69131">
        <ele>36.19</ele>
        <time>2013-12-03T13:47:28Z</time>
      </trkpt>
      <trkpt lat="47.8495" lon="-3.69165">
        <ele>41.95</ele>
        <time>2013-12-03T13:47:58Z</time>
      </trkpt>
      <trkpt lat="47.84934" lon="-3.69208">
        <ele>44.84</ele>
        <time>2013-12-03T13:48:28Z</time>
      </trkpt>
      <trkpt lat="47.84907" lon="-3.6923">
        <ele>47.72</ele>
        <time>2013-12-03T13:48:58Z</time>
      </trkpt>
      <trkpt lat="47.84889" lon="-3.69277">
        <ele>52.05</ele>
        <time>2013-12-03T13:49:28Z</time>
      </trkpt>
      <trkpt lat="47.84858" lon="-3.69312">
        <ele>54.45</ele>
        <time>2013-12-03T13:49:58Z</time>
      </trkpt>
      <trkpt lat="47.8482" lon="-3.69334">
        <ele>55.41</ele>
        <time>2013-12-03T13:50:28Z</time>
      </trkpt>
      <trkpt lat="47.84794" lon="-3.69352">
        <ele>56.86</ele>
        <time>2013-12-03T13:50:58Z</time>
      </trkpt>
      <trkpt lat="47.84756" lon="-3.69371">
        <ele>56.37</ele>
        <time>2013-12-03T13:51:28Z</time>
      </trkpt>
      <trkpt lat="47.84718" lon="-3.69376">
        <ele>54.93</ele>
        <time>2013-12-03T13:51:58Z</time>
      </trkpt>
      <trkpt lat="47.84689" lon="-3.69382">
        <ele>52.05</ele>
        <time>2013-12-03T13:52:28Z</time>
      </trkpt>
      <trkpt lat="47.8466" lon="-3.69398">
        <ele>53.01</ele>
        <time>2013-12-03T13:52:58Z</time>
      </trkpt>
      <trkpt lat="47.84662" lon="-3.6946">
        <ele>51.57</ele>
        <time>2013-12-03T13:53:28Z</time>
      </trkpt>
      <trkpt lat="47.84672" lon="-3.69512">
        <ele>59.26</ele>
        <time>2013-12-03T13:53:58Z</time>
      </trkpt>
      <trkpt lat="47.84697" lon="-3.69524">
        <ele>59.26</ele>
        <time>2013-12-03T13:54:28Z</time>
      </trkpt>
      <trkpt lat="47.84727" lon="-3.6951">
        <ele>56.86</ele>
        <time>2013-12-03T13:54:58Z</time>
      </trkpt>
      <trkpt lat="47.84725" lon="-3.69495">
        <ele>56.86</ele>
        <time>2013-12-03T13:55:28Z</time>
      </trkpt>
      <trkpt lat="47.84754" lon="-3.69483">
        <ele>56.37</ele>
        <time>2013-12-03T13:55:58Z</time>
      </trkpt>
      <trkpt lat="47.84759" lon="-3.69479">
        <ele>58.3</ele>
        <time>2013-12-03T13:56:28Z</time>
      </trkpt>
      <trkpt lat="47.84758" lon="-3.69482">
        <ele>58.78</ele>
        <time>2013-12-03T13:56:58Z</time>
      </trkpt>
      <trkpt lat="47.84743" lon="-3.69491">
        <ele>58.3</ele>
        <time>2013-12-03T13:57:28Z</time>
      </trkpt>
      <trkpt lat="47.84723" lon="-3.69489">
        <ele>58.78</ele>
        <time>2013-12-03T13:57:58Z</time>
      </trkpt>
      <trkpt lat="47.84725" lon="-3.69491">
        <ele>60.7</ele>
        <time>2013-12-03T13:58:28Z</time>
      </trkpt>
      <trkpt lat="47.84725" lon="-3.6949">
        <ele>61.66</ele>
        <time>2013-12-03T13:58:58Z</time>
      </trkpt>
      <trkpt lat="47.84723" lon="-3.69478">
        <ele>59.74</ele>
        <time>2013-12-03T13:59:28Z</time>
      </trkpt>
      <trkpt lat="47.84732" lon="-3.69434">
        <ele>53.49</ele>
        <time>2013-12-03T13:59:58Z</time>
      </trkpt>
      <trkpt lat="47.84762" lon="-3.69441">
        <ele>48.2</ele>
        <time>2013-12-03T14:00:28Z</time>
      </trkpt>
      <trkpt lat="47.84793" lon="-3.69455">
        <ele>46.76</ele>
        <time>2013-12-03T14:00:58Z</time>
      </trkpt>
      <trkpt lat="47.84832" lon="-3.69481">
        <ele>48.68</ele>
        <time>2013-12-03T14:01:28Z</time>
      </trkpt>
      <trkpt lat="47.84867" lon="-3.69498">
        <ele>45.8</ele>
        <time>2013-12-03T14:01:58Z</time>
      </trkpt>
      <trkpt lat="47.84897" lon="-3.69524">
        <ele>45.8</ele>
        <time>2013-12-03T14:02:28Z</time>
      </trkpt>
      <trkpt lat="47.84937" lon="-3.69541">
        <ele>47.24</ele>
        <time>2013-12-03T14:02:58Z</time>
      </trkpt>
      <trkpt lat="47.84961" lon="-3.69573">
        <ele>41.95</ele>
        <time>2013-12-03T14:03:28Z</time>
      </trkpt>
      <trkpt lat="47.84962" lon="-3.69623">
        <ele>46.28</ele>
        <time>2013-12-03T14:03:58Z</time>
      </trkpt>
      <trkpt lat="47.84958" lon="-3.69672">
        <ele>51.09</ele>
        <time>2013-12-03T14:04:28Z</time>
      </trkpt>
      <trkpt lat="47.84979" lon="-3.69719">
        <ele>53.97</ele>
        <time>2013-12-03T14:04:58Z</time>
      </trkpt>
      <trkpt lat="47.85002" lon="-3.69755">
        <ele>49.16</ele>
        <time>2013-12-03T14:05:28Z</time>
      </trkpt>
      <trkpt lat="47.84978" lon="-3.69786">
        <ele>38.59</ele>
        <time>2013-12-03T14:05:58Z</time>
      </trkpt>
      <trkpt lat="47.84941" lon="-3.69796">
        <ele>34.26</ele>
        <time>2013-12-03T14:06:28Z</time>
      </trkpt>
      <trkpt lat="47.84901" lon="-3.69818">
        <ele>43.88</ele>
        <time>2013-12-03T14:06:58Z</time>
      </trkpt>
      <trkpt lat="47.84865" lon="-3.69828">
        <ele>41.95</ele>
        <time>2013-12-03T14:07:28Z</time>
      </trkpt>
      <trkpt lat="47.8483" lon="-3.69822">
        <ele>40.03</ele>
        <time>2013-12-03T14:07:58Z</time>
      </trkpt>
      <trkpt lat="47.84795" lon="-3.69806">
        <ele>40.03</ele>
        <time>2013-12-03T14:08:28Z</time>
      </trkpt>
      <trkpt lat="47.84761" lon="-3.69785">
        <ele>42.44</ele>
        <time>2013-12-03T14:08:58Z</time>
      </trkpt>
      <trkpt lat="47.84725" lon="-3.69764">
        <ele>43.88</ele>
        <time>2013-12-03T14:09:28Z</time>
      </trkpt>
      <trkpt lat="47.84687" lon="-3.69747">
        <ele>44.36</ele>
        <time>2013-12-03T14:09:58Z</time>
      </trkpt>
      <trkpt lat="47.84653" lon="-3.6973">
        <ele>44.36</ele>
        <time>2013-12-03T14:10:28Z</time>
      </trkpt>
      <trkpt lat="47.84624" lon="-3.69724">
        <ele>44.36</ele>
        <time>2013-12-03T14:10:58Z</time>
      </trkpt>
      <trkpt lat="47.84587" lon="-3.69716">
        <ele>40.99</ele>
        <time>2013-12-03T14:11:28Z</time>
      </trkpt>
      <trkpt lat="47.84555" lon="-3.69701">
        <ele>44.36</ele>
        <time>2013-12-03T14:11:58Z</time>
      </trkpt>
      <trkpt lat="47.84525" lon="-3.69677">
        <ele>40.51</ele>
        <time>2013-12-03T14:12:28Z</time>
      </trkpt>
      <trkpt lat="47.8449" lon="-3.6965">
        <ele>38.11</ele>
        <time>2013-12-03T14:12:58Z</time>
      </trkpt>
      <trkpt lat="47.84474" lon="-3.69678">
        <ele>43.4</ele>
        <time>2013-12-03T14:13:28Z</time>
      </trkpt>
      <trkpt lat="47.84473" lon="-3.69737">
        <ele>44.36</ele>
        <time>2013-12-03T14:13:58Z</time>
      </trkpt>
      <trkpt lat="47.84472" lon="-3.69793">
        <ele>44.36</ele>
        <time>2013-12-03T14:14:28Z</time>
      </trkpt>
      <trkpt lat="47.84472" lon="-3.6985">
        <ele>45.8</ele>
        <time>2013-12-03T14:14:58Z</time>
      </trkpt>
      <trkpt lat="47.84472" lon="-3.69906">
        <ele>39.07</ele>
        <time>2013-12-03T14:15:28Z</time>
      </trkpt>
      <trkpt lat="47.8447" lon="-3.69962">
        <ele>32.82</ele>
        <time>2013-12-03T14:15:58Z</time>
      </trkpt>
      <trkpt lat="47.84471" lon="-3.70019">
        <ele>28.02</ele>
        <time>2013-12-03T14:16:28Z</time>
      </trkpt>
      <trkpt lat="47.84471" lon="-3.70076">
        <ele>28.02</ele>
        <time>2013-12-03T14:16:58Z</time>
      </trkpt>
      <trkpt lat="47.8447" lon="-3.70131">
        <ele>24.17</ele>
        <time>2013-12-03T14:17:28Z</time>
      </trkpt>
      <trkpt lat="47.84472" lon="-3.70185">
        <ele>22.73</ele>
        <time>2013-12-03T14:17:58Z</time>
      </trkpt>
      <trkpt lat="47.84453" lon="-3.70202">
        <ele>23.21</ele>
        <time>2013-12-03T14:18:28Z</time>
      </trkpt>
      <trkpt lat="47.84423" lon="-3.70211">
        <ele>19.84</ele>
        <time>2013-12-03T14:18:58Z</time>
      </trkpt>
      <trkpt lat="47.84387" lon="-3.7021">
        <ele>17.44</ele>
        <time>2013-12-03T14:19:28Z</time>
      </trkpt>
      <trkpt lat="47.84357" lon="-3.70224">
        <ele>11.67</ele>
        <time>2013-12-03T14:19:58Z</time>
      </trkpt>
      <trkpt lat="47.84322" lon="-3.70261">
        <ele>13.12</ele>
        <time>2013-12-03T14:20:28Z</time>
      </trkpt>
      <trkpt lat="47.84294" lon="-3.70274">
        <ele>11.67</ele>
        <time>2013-12-03T14:20:58Z</time>
      </trkpt>
      <trkpt lat="47.84259" lon="-3.70291">
        <ele>15.52</ele>
        <time>2013-12-03T14:21:28Z</time>
      </trkpt>
      <trkpt lat="47.84238" lon="-3.70279">
        <ele>17.44</ele>
        <time>2013-12-03T14:21:58Z</time>
      </trkpt>
      <trkpt lat="47.84218" lon="-3.70292">
        <ele>21.29</ele>
        <time>2013-12-03T14:22:28Z</time>
      </trkpt>
      <trkpt lat="47.84194" lon="-3.70267">
        <ele>25.61</ele>
        <time>2013-12-03T14:22:58Z</time>
      </trkpt>
      <trkpt lat="47.84191" lon="-3.70221">
        <ele>25.13</ele>
        <time>2013-12-03T14:23:28Z</time>
      </trkpt>
      <trkpt lat="47.84184" lon="-3.70167">
        <ele>30.9</ele>
        <time>2013-12-03T14:23:58Z</time>
      </trkpt>
      <trkpt lat="47.84185" lon="-3.70163">
        <ele>28.98</ele>
        <time>2013-12-03T14:24:28Z</time>
      </trkpt>
      <trkpt lat="47.84186" lon="-3.70163">
        <ele>29.46</ele>
        <time>2013-12-03T14:24:58Z</time>
      </trkpt>
      <trkpt lat="47.84186" lon="-3.70163">
        <ele>29.46</ele>
        <time>2013-12-03T14:25:28Z</time>
      </trkpt>
      <trkpt lat="47.84183" lon="-3.70163">
        <ele>30.9</ele>
        <time>2013-12-03T14:25:58Z</time>
      </trkpt>
      <trkpt lat="47.84148" lon="-3.70166">
        <ele>36.19</ele>
        <time>2013-12-03T14:26:28Z</time>
      </trkpt>
      <trkpt lat="47.84115" lon="-3.70178">
        <ele>37.15</ele>
        <time>2013-12-03T14:26:58Z</time>
      </trkpt>
      <trkpt lat="47.8408" lon="-3.70185">
        <ele>38.59</ele>
        <time>2013-12-03T14:27:28Z</time>
      </trkpt>
      <trkpt lat="47.84049" lon="-3.70168">
        <ele>47.72</ele>
        <time>2013-12-03T14:27:58Z</time>
      </trkpt>
      <trkpt lat="47.84019" lon="-3.70139">
        <ele>49.16</ele>
        <time>2013-12-03T14:28:28Z</time>
      </trkpt>
      <trkpt lat="47.83988" lon="-3.70112">
        <ele>49.16</ele>
        <time>2013-12-03T14:28:58Z</time>
      </trkpt>
      <trkpt lat="47.83958" lon="-3.70079">
        <ele>51.09</ele>
        <time>2013-12-03T14:29:28Z</time>
      </trkpt>
      <trkpt lat="47.83928" lon="-3.70048">
        <ele>50.13</ele>
        <time>2013-12-03T14:29:58Z</time>
      </trkpt>
      <trkpt lat="47.83892" lon="-3.70035">
        <ele>49.16</ele>
        <time>2013-12-03T14:30:28Z</time>
      </trkpt>
      <trkpt lat="47.83857" lon="-3.70025">
        <ele>48.2</ele>
        <time>2013-12-03T14:30:58Z</time>
      </trkpt>
      <trkpt lat="47.83825" lon="-3.70011">
        <ele>48.68</ele>
        <time>2013-12-03T14:31:28Z</time>
      </trkpt>
      <trkpt lat="47.83786" lon="-3.70002">
        <ele>47.72</ele>
        <time>2013-12-03T14:31:58Z</time>
      </trkpt>
      <trkpt lat="47.83748" lon="-3.70003">
        <ele>44.36</ele>
        <time>2013-12-03T14:32:28Z</time>
      </trkpt>
      <trkpt lat="47.83713" lon="-3.70006">
        <ele>40.03</ele>
        <time>2013-12-03T14:32:58Z</time>
      </trkpt>
      <trkpt lat="47.83673" lon="-3.70006">
        <ele>35.71</ele>
        <time>2013-12-03T14:33:28Z</time>
      </trkpt>
      <trkpt lat="47.83636" lon="-3.70005">
        <ele>32.82</ele>
        <time>2013-12-03T14:33:58Z</time>
      </trkpt>
      <trkpt lat="47.83595" lon="-3.70005">
        <ele>30.9</ele>
        <time>2013-12-03T14:34:28Z</time>
      </trkpt>
      <trkpt lat="47.83555" lon="-3.70005">
        <ele>29.46</ele>
        <time>2013-12-03T14:34:58Z</time>
      </trkpt>
      <trkpt lat="47.83516" lon="-3.70004">
        <ele>26.57</ele>
        <time>2013-12-03T14:35:28Z</time>
      </trkpt>
      <trkpt lat="47.83477" lon="-3.70001">
        <ele>29.94</ele>
        <time>2013-12-03T14:35:58Z</time>
      </trkpt>
      <trkpt lat="47.83441" lon="-3.69982">
        <ele>26.09</ele>
        <time>2013-12-03T14:36:28Z</time>
      </trkpt>
      <trkpt lat="47.83402" lon="-3.69989">
        <ele>23.69</ele>
        <time>2013-12-03T14:36:58Z</time>
      </trkpt>
      <trkpt lat="47.83364" lon="-3.70006">
        <ele>17.92</ele>
        <time>2013-12-03T14:37:28Z</time>
      </trkpt>
      <trkpt lat="47.83326" lon="-3.70009">
        <ele>19.84</ele>
        <time>2013-12-03T14:37:58Z</time>
      </trkpt>
      <trkpt lat="47.83309" lon="-3.69963">
        <ele>17.44</ele>
        <time>2013-12-03T14:38:28Z</time>
      </trkpt>
      <trkpt lat="47.83294" lon="-3.6991">
        <ele>14.08</ele>
        <time>2013-12-03T14:38:58Z</time>
      </trkpt>
      <trkpt lat="47.83269" lon="-3.69859">
        <ele>8.79</ele>
        <time>2013-12-03T14:39:28Z</time>
      </trkpt>
      <trkpt lat="47.83236" lon="-3.6983">
        <ele>1.1</ele>
        <time>2013-12-03T14:39:58Z</time>
      </trkpt>
      <trkpt lat="47.83216" lon="-3.69841">
        <ele>-5.63</ele>
        <time>2013-12-03T14:40:28Z</time>
      </trkpt>
      <trkpt lat="47.83191" lon="-3.69863">
        <ele>-5.63</ele>
        <time>2013-12-03T14:40:58Z</time>
      </trkpt>
      <trkpt lat="47.83171" lon="-3.69868">
        <ele>-3.23</ele>
        <time>2013-12-03T14:41:28Z</time>
      </trkpt>
      <trkpt lat="47.83169" lon="-3.69834">
        <ele>-3.71</ele>
        <time>2013-12-03T14:41:58Z</time>
      </trkpt>
      <trkpt lat="47.83176" lon="-3.69802">
        <ele>-5.63</ele>
        <time>2013-12-03T14:42:28Z</time>
      </trkpt>
      <trkpt lat="47.83168" lon="-3.69793">
        <ele>-5.15</ele>
        <time>2013-12-03T14:42:58Z</time>
      </trkpt>
      <trkpt lat="47.83144" lon="-3.69774">
        <ele>-4.19</ele>
        <time>2013-12-03T14:43:28Z</time>
      </trkpt>
      <trkpt lat="47.83117" lon="-3.69765">
        <ele>-4.19</ele>
        <time>2013-12-03T14:43:58Z</time>
      </trkpt>
      <trkpt lat="47.83092" lon="-3.69734">
        <ele>-9.96</ele>
        <time>2013-12-03T14:44:28Z</time>
      </trkpt>
      <trkpt lat="47.83079" lon="-3.69693">
        <ele>-10.92</ele>
        <time>2013-12-03T14:44:58Z</time>
      </trkpt>
      <trkpt lat="47.8308" lon="-3.69634">
        <ele>-2.75</ele>
        <time>2013-12-03T14:45:28Z</time>
      </trkpt>
      <trkpt lat="47.83097" lon="-3.6959">
        <ele>-3.71</ele>
        <time>2013-12-03T14:45:58Z</time>
      </trkpt>
      <trkpt lat="47.83129" lon="-3.69564">
        <ele>-1.79</ele>
        <time>2013-12-03T14:46:28Z</time>
      </trkpt>
      <trkpt lat="47.8316" lon="-3.69547">
        <ele>-2.75</ele>
        <time>2013-12-03T14:46:58Z</time>
      </trkpt>
      <trkpt lat="47.83179" lon="-3.69535">
        <ele>-1.3</ele>
        <time>2013-12-03T14:47:28Z</time>
      </trkpt>
      <trkpt lat="47.83183" lon="-3.69488">
        <ele>-2.27</ele>
        <time>2013-12-03T14:47:58Z</time>
      </trkpt>
      <trkpt lat="47.83205" lon="-3.69448">
        <ele>-0.34</ele>
        <time>2013-12-03T14:48:28Z</time>
      </trkpt>
      <trkpt lat="47.8324" lon="-3.69422">
        <ele>1.58</ele>
        <time>2013-12-03T14:48:58Z</time>
      </trkpt>
      <trkpt lat="47.83258" lon="-3.69427">
        <ele>-0.34</ele>
        <time>2013-12-03T14:49:28Z</time>
      </trkpt>
      <trkpt lat="47.83289" lon="-3.69458">
        <ele>3.98</ele>
        <time>2013-12-03T14:49:58Z</time>
      </trkpt>
      <trkpt lat="47.83303" lon="-3.69476">
        <ele>5.42</ele>
        <time>2013-12-03T14:50:28Z</time>
      </trkpt>
      <trkpt lat="47.83307" lon="-3.69529">
        <ele>9.27</ele>
        <time>2013-12-03T14:50:58Z</time>
      </trkpt>
      <trkpt lat="47.83319" lon="-3.69531">
        <ele>14.08</ele>
        <time>2013-12-03T14:51:28Z</time>
      </trkpt>
      <trkpt lat="47.83354" lon="-3.69517">
        <ele>18.88</ele>
        <time>2013-12-03T14:51:58Z</time>
      </trkpt>
      <trkpt lat="47.83392" lon="-3.69523">
        <ele>24.65</ele>
        <time>2013-12-03T14:52:28Z</time>
      </trkpt>
      <trkpt lat="47.83424" lon="-3.69537">
        <ele>28.5</ele>
        <time>2013-12-03T14:52:58Z</time>
      </trkpt>
      <trkpt lat="47.83453" lon="-3.69549">
        <ele>31.38</ele>
        <time>2013-12-03T14:53:28Z</time>
      </trkpt>
      <trkpt lat="47.83481" lon="-3.69555">
        <ele>31.38</ele>
        <time>2013-12-03T14:53:58Z</time>
      </trkpt>
      <trkpt lat="47.83509" lon="-3.69564">
        <ele>31.38</ele>
        <time>2013-12-03T14:54:28Z</time>
      </trkpt>
      <trkpt lat="47.83539" lon="-3.69576">
        <ele>36.19</ele>
        <time>2013-12-03T14:54:58Z</time>
      </trkpt>
      <trkpt lat="47.83575" lon="-3.6958">
        <ele>39.07</ele>
        <time>2013-12-03T14:55:28Z</time>
      </trkpt>
      <trkpt lat="47.836" lon="-3.69587">
        <ele>39.55</ele>
        <time>2013-12-03T14:55:58Z</time>
      </trkpt>
      <trkpt lat="47.8363" lon="-3.69557">
        <ele>39.07</ele>
        <time>2013-12-03T14:56:28Z</time>
      </trkpt>
      <trkpt lat="47.83648" lon="-3.69537">
        <ele>40.51</ele>
        <time>2013-12-03T14:56:58Z</time>
      </trkpt>
      <trkpt lat="47.83685" lon="-3.69516">
        <ele>44.36</ele>
        <time>2013-12-03T14:57:28Z</time>
      </trkpt>
      <trkpt lat="47.83717" lon="-3.69505">
        <ele>51.09</ele>
        <time>2013-12-03T14:57:58Z</time>
      </trkpt>
      <trkpt lat="47.83753" lon="-3.69494">
        <ele>49.16</ele>
        <time>2013-12-03T14:58:28Z</time>
      </trkpt>
      <trkpt lat="47.8377" lon="-3.69482">
        <ele>52.05</ele>
        <time>2013-12-03T14:58:58Z</time>
      </trkpt>
      <trkpt lat="47.8377" lon="-3.69481">
        <ele>53.01</ele>
        <time>2013-12-03T14:59:28Z</time>
      </trkpt>
      <trkpt lat="47.83773" lon="-3.69457">
        <ele>52.05</ele>
        <time>2013-12-03T14:59:58Z</time>
      </trkpt>
      <trkpt lat="47.83798" lon="-3.69436">
        <ele>52.05</ele>
        <time>2013-12-03T15:00:28Z</time>
      </trkpt>
      <trkpt lat="47.83833" lon="-3.69451">
        <ele>57.82</ele>
        <time>2013-12-03T15:00:58Z</time>
      </trkpt>
      <trkpt lat="47.83837" lon="-3.69417">
        <ele>56.37</ele>
        <time>2013-12-03T15:01:28Z</time>
      </trkpt>
      <trkpt lat="47.83821" lon="-3.69364">
        <ele>53.01</ele>
        <time>2013-12-03T15:01:58Z</time>
      </trkpt>
      <trkpt lat="47.838" lon="-3.69317">
        <ele>51.09</ele>
        <time>2013-12-03T15:02:28Z</time>
      </trkpt>
      <trkpt lat="47.83802" lon="-3.69269">
        <ele>46.76</ele>
        <time>2013-12-03T15:02:58Z</time>
      </trkpt>
      <trkpt lat="47.83826" lon="-3.69232">
        <ele>45.8</ele>
        <time>2013-12-03T15:03:28Z</time>
      </trkpt>
      <trkpt lat="47.83856" lon="-3.69198">
        <ele>45.8</ele>
        <time>2013-12-03T15:03:58Z</time>
      </trkpt>
      <trkpt lat="47.8389" lon="-3.69189">
        <ele>45.8</ele>
        <time>2013-12-03T15:04:28Z</time>
      </trkpt>
      <trkpt lat="47.83918" lon="-3.69227">
        <ele>47.24</ele>
        <time>2013-12-03T15:04:58Z</time>
      </trkpt>
      <trkpt lat="47.83943" lon="-3.69269">
        <ele>49.65</ele>
        <time>2013-12-03T15:05:28Z</time>
      </trkpt>
      <trkpt lat="47.83968" lon="-3.69316">
        <ele>51.09</ele>
        <time>2013-12-03T15:05:58Z</time>
      </trkpt>
      <trkpt lat="47.83999" lon="-3.69341">
        <ele>57.34</ele>
        <time>2013-12-03T15:06:28Z</time>
      </trkpt>
      <trkpt lat="47.84039" lon="-3.69348">
        <ele>60.7</ele>
        <time>2013-12-03T15:06:58Z</time>
      </trkpt>
      <trkpt lat="47.84074" lon="-3.69357">
        <ele>60.22</ele>
        <time>2013-12-03T15:07:28Z</time>
      </trkpt>
      <trkpt lat="47.84116" lon="-3.69366">
        <ele>58.3</ele>
        <time>2013-12-03T15:07:58Z</time>
      </trkpt>
      <trkpt lat="47.84153" lon="-3.69355">
        <ele>58.3</ele>
        <time>2013-12-03T15:08:28Z</time>
      </trkpt>
      <trkpt lat="47.8417" lon="-3.69305">
        <ele>53.97</ele>
        <time>2013-12-03T15:08:58Z</time>
      </trkpt>
      <trkpt lat="47.84199" lon="-3.69279">
        <ele>50.13</ele>
        <time>2013-12-03T15:09:28Z</time>
      </trkpt>
      <trkpt lat="47.84228" lon="-3.69269">
        <ele>50.61</ele>
        <time>2013-12-03T15:09:58Z</time>
      </trkpt>
      <trkpt lat="47.8424" lon="-3.69219">
        <ele>53.97</ele>
        <time>2013-12-03T15:10:28Z</time>
      </trkpt>
      <trkpt lat="47.84256" lon="-3.69189">
        <ele>53.97</ele>
        <time>2013-12-03T15:10:58Z</time>
      </trkpt>
      <trkpt lat="47.8424" lon="-3.69144">
        <ele>51.09</ele>
        <time>2013-12-03T15:11:28Z</time>
      </trkpt>
      <trkpt lat="47.84225" lon="-3.69104">
        <ele>50.13</ele>
        <time>2013-12-03T15:11:58Z</time>
      </trkpt>
      <trkpt lat="47.84222" lon="-3.69102">
        <ele>53.97</ele>
        <time>2013-12-03T15:12:28Z</time>
      </trkpt>
    </trkseg>
  </trk>
</gpx>